Time;durP1;ratioP1;P1;durP2;ratioP2;P2;SDS_P1;SDS_P2;PMS_P1;PMS_P2;Temp;Humidity;BMP_temperature;BMP_pressure;BME280_temperature;BME280_humidity;BME280_pressure;Samples;Min_cycle;Max_cycle;Signal;HPM_P1;HPM_P2
2022/09/12 00:00:38;;;;;;;17.65;12.55;;;16.80;74.20;;;;;;9181531;19;20566;-64
2022/09/12 00:03:43;;;;;;;18.85;12.98;;;16.80;74.30;;;;;;9182150;19;20019;-63
2022/09/12 00:06:46;;;;;;;20.60;13.80;;;16.70;74.20;;;;;;9182649;19;20028;-64
2022/09/12 00:09:52;;;;;;;20.42;14.23;;;16.70;74.30;;;;;;9179714;19;20022;-64
2022/09/12 00:12:55;;;;;;;19.63;13.40;;;16.70;74.40;;;;;;9181582;19;20014;-63
2022/09/12 00:15:59;;;;;;;18.65;13.68;;;16.60;74.40;;;;;;9184037;19;20021;-63
2022/09/12 00:19:04;;;;;;;20.00;13.13;;;16.60;74.40;;;;;;9181258;19;20010;-62
2022/09/12 00:22:08;;;;;;;17.40;13.35;;;16.60;74.50;;;;;;9182970;19;20063;-63
2022/09/12 00:25:13;;;;;;;17.35;12.45;;;16.50;74.50;;;;;;9181579;19;20078;-62
2022/09/12 00:28:19;;;;;;;18.45;12.27;;;16.50;74.60;;;;;;9181184;19;20519;-61
2022/09/12 00:31:25;;;;;;;19.35;11.63;;;16.50;74.60;;;;;;9178965;19;20102;-62
2022/09/12 00:34:29;;;;;;;17.23;12.13;;;16.50;74.70;;;;;;9175000;19;20018;-62
2022/09/12 00:37:33;;;;;;;15.68;11.43;;;16.40;74.70;;;;;;9179694;19;20478;-63
2022/09/12 00:40:38;;;;;;;19.83;10.93;;;16.40;74.70;;;;;;9180156;19;20061;-65
2022/09/12 00:43:44;;;;;;;15.25;11.02;;;16.40;74.80;;;;;;9178877;19;20015;-64
2022/09/12 00:46:49;;;;;;;16.98;10.85;;;16.30;74.70;;;;;;9180895;19;20593;-63
2022/09/12 00:49:58;;;;;;;16.13;10.95;;;16.30;74.80;;;;;;9180687;19;20026;-63
2022/09/12 00:53:05;;;;;;;15.18;10.57;;;16.30;74.80;;;;;;9180449;19;20022;-62
2022/09/12 00:56:12;;;;;;;16.95;10.80;;;16.30;74.90;;;;;;9182068;19;20031;-63
2022/09/12 00:59:20;;;;;;;16.98;10.95;;;16.20;74.90;;;;;;9180066;19;20014;-62
2022/09/12 01:02:24;;;;;;;13.55;10.35;;;16.20;74.90;;;;;;9179245;19;20024;-63
2022/09/12 01:05:30;;;;;;;13.63;10.30;;;16.20;74.90;;;;;;9179771;19;20026;-63
2022/09/12 01:08:36;;;;;;;17.00;10.88;;;16.20;75.70;;;;;;9178003;19;20089;-63
2022/09/12 01:11:44;;;;;;;15.38;10.80;;;16.10;75.00;;;;;;9176746;19;20031;-63
2022/09/12 01:14:48;;;;;;;16.23;11.43;;;16.10;75.00;;;;;;9179737;19;20388;-64
2022/09/12 01:18:08;;;;;;;17.88;11.57;;;16.00;75.10;;;;;;9179527;19;20030;-63
2022/09/12 01:21:20;;;;;;;16.55;11.48;;;16.00;75.20;;;;;;9179858;19;20031;-64
2022/09/12 01:24:45;;;;;;;17.98;11.40;;;16.00;75.20;;;;;;9179698;19;20099;-63
2022/09/12 01:28:10;;;;;;;17.42;11.27;;;15.90;75.30;;;;;;9179157;19;20081;-63
2022/09/12 01:31:21;;;;;;;15.05;10.30;;;15.90;75.30;;;;;;9176539;19;20018;-63
2022/09/12 01:34:29;;;;;;;13.60;9.95;;;15.90;75.20;;;;;;9174405;19;20077;-62
2022/09/12 01:37:40;;;;;;;15.82;10.45;;;15.90;75.20;;;;;;9179189;19;20015;-63
2022/09/12 01:40:49;;;;;;;13.50;9.25;;;15.80;75.30;;;;;;9178856;19;20021;-62
2022/09/12 01:44:01;;;;;;;12.82;9.65;;;15.80;75.30;;;;;;9179267;19;20014;-63
2022/09/12 01:47:13;;;;;;;16.10;10.00;;;15.80;75.40;;;;;;9178646;19;20031;-64
2022/09/12 01:50:20;;;;;;;11.35;8.85;;;15.70;75.40;;;;;;9177845;19;20081;-63
2022/09/12 01:53:28;;;;;;;13.43;9.43;;;15.70;75.40;;;;;;9181456;19;20022;-64
2022/09/12 01:56:36;;;;;;;12.52;8.80;;;15.70;75.40;;;;;;9185782;19;20408;-63
2022/09/12 01:59:44;;;;;;;16.33;8.85;;;15.70;75.50;;;;;;9186387;19;20014;-62
2022/09/12 02:02:54;;;;;;;12.50;9.30;;;15.60;75.50;;;;;;9185868;19;20015;-63
2022/09/12 02:06:02;;;;;;;12.75;8.48;;;15.60;75.50;;;;;;9186240;19;20020;-63
2022/09/12 02:09:10;;;;;;;15.20;8.55;;;15.60;75.50;;;;;;9184324;19;20025;-62
2022/09/12 02:12:18;;;;;;;12.90;8.13;;;15.50;75.50;;;;;;9183716;19;20476;-64
2022/09/12 02:15:25;;;;;;;12.57;9.10;;;15.50;75.50;;;;;;9185791;19;20025;-62
2022/09/12 02:18:33;;;;;;;13.45;9.85;;;15.50;75.60;;;;;;9185095;19;20025;-62
2022/09/12 02:21:40;;;;;;;15.73;9.63;;;15.40;75.60;;;;;;9185790;19;20018;-63
2022/09/12 02:24:47;;;;;;;16.40;9.55;;;15.40;75.50;;;;;;9185049;19;20070;-61
2022/09/12 02:27:55;;;;;;;12.20;9.05;;;15.40;75.60;;;;;;9182829;19;20025;-61
2022/09/12 02:31:08;;;;;;;12.48;8.80;;;15.40;75.60;;;;;;9183370;19;20029;-62
2022/09/12 02:34:22;;;;;;;12.02;9.13;;;15.30;75.60;;;;;;9185360;19;20086;-63
2022/09/12 02:37:34;;;;;;;13.20;9.02;;;15.30;75.70;;;;;;9184874;19;20014;-61
2022/09/12 02:40:39;;;;;;;14.50;8.32;;;15.20;75.70;;;;;;9185021;19;20014;-63
2022/09/12 02:43:42;;;;;;;14.35;8.35;;;15.20;75.70;;;;;;9185578;19;20020;-63
2022/09/12 02:46:50;;;;;;;13.10;9.32;;;15.20;75.80;;;;;;9184822;19;20026;-64
2022/09/12 02:49:57;;;;;;;14.55;9.65;;;15.20;75.80;;;;;;9184776;19;20082;-63
2022/09/12 02:53:03;;;;;;;13.95;9.65;;;15.10;75.80;;;;;;9181639;19;20022;-60
2022/09/12 02:56:13;;;;;;;13.52;8.57;;;15.10;75.90;;;;;;9184061;19;20028;-63
2022/09/12 02:59:23;;;;;;;9.27;6.80;;;15.10;75.90;;;;;;9182679;19;20014;-60
2022/09/12 03:02:33;;;;;;;9.70;7.22;;;15.10;76.00;;;;;;9184820;19;20011;-63
2022/09/12 03:05:46;;;;;;;9.95;7.18;;;15.00;75.90;;;;;;9181865;19;20026;-63
2022/09/12 03:09:03;;;;;;;16.55;7.20;;;15.00;76.00;;;;;;9183223;19;20019;-63
2022/09/12 03:12:20;;;;;;;11.05;7.75;;;15.00;76.10;;;;;;9181709;19;20535;-63
2022/09/12 03:15:43;;;;;;;12.70;8.32;;;15.00;76.10;;;;;;9183333;19;20018;-62
2022/09/12 03:18:59;;;;;;;10.70;7.90;;;15.00;76.20;;;;;;9182193;19;20023;-64
2022/09/12 03:22:14;;;;;;;19.35;8.00;;;15.00;76.70;;;;;;9182314;19;20627;-62
2022/09/12 03:25:21;;;;;;;10.65;7.57;;;14.90;76.10;;;;;;9182725;19;20022;-65
2022/09/12 03:28:26;;;;;;;12.10;8.13;;;14.90;76.10;;;;;;9181250;19;20045;-63
2022/09/12 03:31:30;;;;;;;;;;;14.90;76.10;;;;;;9182729;19;20018;-62
2022/09/12 03:34:33;;;;;;;;;;;14.80;76.10;;;;;;9178574;19;20336;-63
2022/09/12 03:37:39;;;;;;;11.05;7.47;;;14.80;75.90;;;;;;9182447;19;19955;-63
2022/09/12 03:40:43;;;;;;;11.30;8.40;;;14.80;75.90;;;;;;9181152;19;20078;-62
2022/09/12 03:43:47;;;;;;;11.93;8.18;;;14.70;75.90;;;;;;9182082;19;20023;-62
2022/09/12 03:46:51;;;;;;;12.50;8.05;;;14.80;76.00;;;;;;9182782;19;20763;-63
2022/09/12 03:49:54;;;;;;;11.48;7.60;;;14.70;76.10;;;;;;9180699;19;20081;-63
2022/09/12 03:53:01;;;;;;;10.32;7.63;;;14.70;76.20;;;;;;9177906;19;20025;-61
2022/09/12 03:56:08;;;;;;;11.25;6.45;;;14.60;76.10;;;;;;9181866;19;20078;-61
2022/09/12 03:59:11;;;;;;;14.15;7.63;;;14.70;76.20;;;;;;9182518;19;20025;-62
2022/09/12 04:02:15;;;;;;;11.80;8.25;;;14.60;76.50;;;;;;9181259;19;20394;-63
2022/09/12 04:05:18;;;;;;;12.13;8.18;;;14.60;76.20;;;;;;9182131;19;20023;-62
2022/09/12 04:08:25;;;;;;;13.23;8.13;;;14.60;76.20;;;;;;9180683;19;20090;-62
2022/09/12 04:11:29;;;;;;;15.52;9.20;;;14.60;76.30;;;;;;9179323;19;20010;-64
2022/09/12 04:14:33;;;;;;;12.45;8.57;;;14.50;76.20;;;;;;9180388;19;20028;-63
2022/09/12 04:17:37;;;;;;;11.75;8.68;;;14.50;76.30;;;;;;9181410;19;20043;-63
2022/09/12 04:20:41;;;;;;;14.27;9.25;;;14.50;76.30;;;;;;9178825;19;20074;-63
2022/09/12 04:23:46;;;;;;;12.75;8.65;;;14.40;76.30;;;;;;9181449;19;20047;-63
2022/09/12 04:26:50;;;;;;;13.23;9.48;;;14.40;76.30;;;;;;9181439;19;20029;-63
2022/09/12 04:29:54;;;;;;;19.33;10.60;;;14.40;76.30;;;;;;9181861;19;20100;-62
2022/09/12 04:32:58;;;;;;;16.42;10.35;;;14.40;76.40;;;;;;9178316;19;20503;-62
2022/09/12 04:36:06;;;;;;;14.15;8.77;;;14.40;76.40;;;;;;9176852;19;20479;-64
2022/09/12 04:39:12;;;;;;;14.25;8.55;;;14.40;76.50;;;;;;9179479;19;20499;-63
2022/09/12 04:42:15;;;;;;;17.77;9.55;;;14.30;76.40;;;;;;9180660;19;20444;-62
2022/09/12 04:45:19;;;;;;;12.48;8.23;;;14.30;76.50;;;;;;9180208;19;20018;-63
2022/09/12 04:48:23;;;;;;;15.45;9.27;;;14.30;76.50;;;;;;9180883;19;20134;-64
2022/09/12 04:51:28;;;;;;;13.27;8.32;;;14.30;76.50;;;;;;9179910;19;20020;-62
2022/09/12 04:54:34;;;;;;;13.32;8.00;;;14.20;76.50;;;;;;9178155;19;20460;-62
2022/09/12 04:57:37;;;;;;;15.57;9.43;;;14.20;76.50;;;;;;9179459;19;20018;-63
2022/09/12 05:00:41;;;;;;;16.38;8.02;;;14.20;76.60;;;;;;9181128;19;20033;-64
2022/09/12 05:03:45;;;;;;;14.32;9.20;;;14.20;76.60;;;;;;9180638;19;20110;-62
2022/09/12 05:06:49;;;;;;;13.15;9.30;;;14.20;76.60;;;;;;9179761;19;20681;-62
2022/09/12 05:09:55;;;;;;;12.20;7.50;;;14.20;76.70;;;;;;9177129;19;20386;-62
2022/09/12 05:12:58;;;;;;;15.20;8.68;;;14.20;76.70;;;;;;9176695;19;20022;-63
2022/09/12 05:16:05;;;;;;;11.30;7.25;;;14.10;76.70;;;;;;9177860;19;20042;-63
2022/09/12 05:19:10;;;;;;;11.40;7.72;;;14.10;76.70;;;;;;9179483;19;20109;-63
2022/09/12 05:22:14;;;;;;;12.73;8.05;;;14.10;76.80;;;;;;9179100;19;20027;-63
2022/09/12 05:25:19;;;;;;;14.00;8.55;;;14.10;76.80;;;;;;9179635;19;20118;-63
2022/09/12 05:28:24;;;;;;;16.67;8.63;;;14.10;76.80;;;;;;9176057;19;20394;-65
2022/09/12 05:31:29;;;;;;;15.73;9.35;;;14.10;76.90;;;;;;9176641;19;20629;-63
2022/09/12 05:34:33;;;;;;;20.35;11.55;;;14.10;76.90;;;;;;9174205;19;20014;-63
2022/09/12 05:37:36;;;;;;;21.10;11.82;;;14.10;76.90;;;;;;9178760;19;20014;-64
2022/09/12 05:40:42;;;;;;;23.88;11.82;;;14.10;77.00;;;;;;9175996;19;20023;-64
2022/09/12 05:43:46;;;;;;;22.77;11.73;;;14.10;77.60;;;;;;9178071;19;20013;-64
2022/09/12 05:46:52;;;;;;;23.77;13.13;;;14.10;77.10;;;;;;9179143;19;20018;-64
2022/09/12 05:49:57;;;;;;;24.48;13.98;;;14.10;77.10;;;;;;9179256;19;20032;-63
2022/09/12 05:53:01;;;;;;;27.83;13.20;;;14.20;77.20;;;;;;9175425;19;20014;-62
2022/09/12 05:56:11;;;;;;;26.63;14.30;;;14.10;77.20;;;;;;9178332;19;20507;-65
2022/09/12 05:59:17;;;;;;;31.08;16.30;;;14.20;77.40;;;;;;9177971;19;20015;-63
2022/09/12 06:02:20;;;;;;;28.77;14.98;;;14.20;77.40;;;;;;9176974;19;20033;-63
2022/09/12 06:05:24;;;;;;;33.80;16.60;;;14.20;77.40;;;;;;9176002;19;20052;-63
2022/09/12 06:08:28;;;;;;;35.65;18.65;;;14.30;77.50;;;;;;9174419;19;20104;-64
2022/09/12 06:11:36;;;;;;;33.97;18.40;;;14.30;77.50;;;;;;9174725;19;20050;-64
2022/09/12 06:14:39;;;;;;;40.05;20.60;;;14.40;77.70;;;;;;9177016;19;20018;-63
2022/09/12 06:17:43;;;;;;;45.05;22.60;;;14.40;77.70;;;;;;9176463;19;20022;-61
2022/09/12 06:20:52;;;;;;;42.45;21.92;;;14.50;77.80;;;;;;9167778;19;20610;-63
2022/09/12 06:23:57;;;;;;;43.55;21.95;;;14.50;77.80;;;;;;9168998;19;20082;-63
2022/09/12 06:27:03;;;;;;;45.80;23.27;;;14.60;78.00;;;;;;9168806;19;21490;-64
2022/09/12 06:30:08;;;;;;;53.58;23.75;;;14.60;78.00;;;;;;9169559;19;20017;-65
2022/09/12 06:33:12;;;;;;;49.80;24.55;;;14.70;78.10;;;;;;9165599;19;20018;-63
2022/09/12 06:36:20;;;;;;;51.92;24.67;;;14.70;78.10;;;;;;9167187;19;20094;-62
2022/09/12 06:39:24;;;;;;;47.47;23.45;;;14.80;78.20;;;;;;9176274;19;20038;-64
2022/09/12 06:42:30;;;;;;;49.22;24.38;;;14.90;78.30;;;;;;9185063;19;20015;-65
2022/09/12 06:45:33;;;;;;;45.67;23.35;;;14.90;78.40;;;;;;9184814;19;20413;-64
2022/09/12 06:48:37;;;;;;;51.80;24.00;;;15.00;78.40;;;;;;9184504;19;20017;-63
2022/09/12 06:51:45;;;;;;;57.13;25.58;;;15.10;78.50;;;;;;9183550;19;20043;-64
2022/09/12 06:54:49;;;;;;;45.80;24.52;;;15.10;78.50;;;;;;9182046;19;20014;-65
2022/09/12 06:57:55;;;;;;;51.35;23.65;;;15.20;78.50;;;;;;9181160;19;20098;-64
2022/09/12 07:01:03;;;;;;;44.95;22.35;;;15.30;78.70;;;;;;9179650;19;20028;-64
2022/09/12 07:04:07;;;;;;;50.45;23.77;;;15.30;78.70;;;;;;9180311;19;20479;-64
2022/09/12 07:07:10;;;;;;;43.47;22.58;;;15.30;78.60;;;;;;9177701;19;20025;-62
2022/09/12 07:10:14;;;;;;;44.17;23.85;;;15.40;78.70;;;;;;9176420;19;20070;-64
2022/09/12 07:13:26;;;;;;;48.00;23.60;;;15.50;78.70;;;;;;9181100;19;20018;-64
2022/09/12 07:16:31;;;;;;;47.28;22.92;;;15.50;79.40;;;;;;9183837;19;20018;-64
2022/09/12 07:19:34;;;;;;;43.38;22.25;;;15.60;78.90;;;;;;9183796;19;20019;-62
2022/09/12 07:22:38;;;;;;;46.25;22.63;;;15.60;78.90;;;;;;9182884;19;20034;-65
2022/09/12 07:25:42;;;;;;;50.13;25.02;;;15.70;78.90;;;;;;9182880;19;20018;-64
2022/09/12 07:28:52;;;;;;;46.83;24.70;;;15.70;78.90;;;;;;9182502;19;20026;-62
2022/09/12 07:31:56;;;;;;;48.92;24.45;;;15.80;79.10;;;;;;9182015;19;20035;-63
2022/09/12 07:35:00;;;;;;;49.58;25.55;;;15.80;79.00;;;;;;9178573;19;20043;-64
2022/09/12 07:38:04;;;;;;;50.10;23.92;;;15.90;79.10;;;;;;9182691;19;20015;-62
2022/09/12 07:41:12;;;;;;;50.05;23.23;;;15.90;79.10;;;;;;9181338;19;20085;-63
2022/09/12 07:44:18;;;;;;;44.42;23.42;;;16.00;79.20;;;;;;9183476;19;20010;-61
2022/09/12 07:47:22;;;;;;;49.83;23.83;;;16.10;79.20;;;;;;9182768;19;20096;-61
2022/09/12 07:50:26;;;;;;;48.75;24.75;;;16.10;79.20;;;;;;9181961;19;20025;-63
2022/09/12 07:53:33;;;;;;;49.78;25.17;;;16.20;79.30;;;;;;9180610;19;20015;-63
2022/09/12 07:56:37;;;;;;;50.35;24.58;;;16.30;79.30;;;;;;9182294;19;20025;-62
2022/09/12 07:59:44;;;;;;;52.08;24.35;;;16.30;79.30;;;;;;9182562;19;20010;-63
2022/09/12 08:02:56;;;;;;;46.67;24.17;;;16.40;79.40;;;;;;9182321;19;20048;-63
2022/09/12 08:06:05;;;;;;;52.85;24.33;;;16.50;79.30;;;;;;9172985;19;20018;-63
2022/09/12 08:09:11;;;;;;;50.08;23.65;;;16.60;79.40;;;;;;9168697;19;19999;-65
2022/09/12 08:12:16;;;;;;;46.60;23.92;;;16.60;79.40;;;;;;9171763;19;20015;-65
2022/09/12 08:15:22;;;;;;;53.35;24.55;;;16.70;79.40;;;;;;9178969;19;20082;-64
2022/09/12 08:18:25;;;;;;;43.70;22.23;;;16.80;79.50;;;;;;9182423;19;20435;-63
2022/09/12 08:21:31;;;;;;;41.33;22.35;;;16.90;79.40;;;;;;9177712;19;20914;-62
2022/09/12 08:24:35;;;;;;;48.90;24.05;;;17.00;79.50;;;;;;9179141;19;20038;-64
2022/09/12 08:27:38;;;;;;;51.17;24.80;;;17.10;79.40;;;;;;9181777;19;20026;-64
2022/09/12 08:30:44;;;;;;;50.33;25.83;;;17.20;79.40;;;;;;9180780;19;20426;-65
2022/09/12 08:33:48;;;;;;;53.15;25.15;;;17.30;79.50;;;;;;9176857;19;20025;-64
2022/09/12 08:36:53;;;;;;;43.42;23.17;;;17.40;79.50;;;;;;9177272;19;20039;-65
2022/09/12 08:39:56;;;;;;;43.15;23.77;;;17.50;79.50;;;;;;9180801;19;20801;-64
2022/09/12 08:43:08;;;;;;;48.03;22.02;;;17.60;79.40;;;;;;9176284;19;20022;-62
2022/09/12 08:46:23;;;;;;;46.10;22.60;;;17.70;79.50;;;;;;9173359;19;20082;-62
2022/09/12 08:49:32;;;;;;;46.92;22.75;;;17.80;79.40;;;;;;9171831;19;20042;-63
2022/09/12 08:52:41;;;;;;;43.95;21.17;;;17.90;79.30;;;;;;9177722;19;20048;-62
2022/09/12 08:55:47;;;;;;;48.42;22.25;;;18.00;79.20;;;;;;9173472;19;20026;-64
2022/09/12 08:58:51;;;;;;;48.25;23.30;;;18.10;79.10;;;;;;9177907;19;20038;-64
2022/09/12 09:01:59;;;;;;;47.55;21.48;;;18.20;79.10;;;;;;9175575;19;20019;-63
2022/09/12 09:05:13;;;;;;;45.72;22.15;;;18.30;79.20;;;;;;9170264;19;20053;-64
2022/09/12 09:08:34;;;;;;;42.03;22.05;;;18.40;79.30;;;;;;9165424;19;20863;-64
2022/09/12 09:11:58;;;;;;;46.55;21.13;;;18.50;79.30;;;;;;9170933;19;20019;-64
2022/09/12 09:15:23;;;;;;;44.30;21.73;;;18.70;79.30;;;;;;9170374;19;20102;-64
2022/09/12 09:18:33;;;;;;;46.70;22.42;;;18.80;79.10;;;;;;9168869;19;20007;-65
2022/09/12 09:21:44;;;;;;;46.25;21.25;;;19.00;79.00;;;;;;9168111;19;20014;-64
2022/09/12 09:24:53;;;;;;;38.83;20.23;;;19.20;79.00;;;;;;9167991;19;20363;-64
2022/09/12 09:28:02;;;;;;;40.45;19.75;;;19.40;79.00;;;;;;9169900;19;20382;-66
2022/09/12 09:31:06;;;;;;;46.70;20.30;;;19.60;78.90;;;;;;9168494;19;20708;-64
2022/09/12 09:34:19;;;;;;;37.80;19.50;;;19.80;79.30;;;;;;9170548;19;20033;-64
2022/09/12 09:37:33;;;;;;;39.28;18.65;;;20.10;78.50;;;;;;9167453;19;20086;-64
2022/09/12 09:40:42;;;;;;;;;;;20.30;78.30;;;;;;9170780;19;20035;-63
2022/09/12 09:43:46;;;;;;;39.88;19.75;;;20.60;78.00;;;;;;9168539;19;19919;-65
2022/09/12 09:46:54;;;;;;;36.97;18.23;;;20.70;77.60;;;;;;9172103;19;20034;-65
2022/09/12 09:50:00;;;;;;;36.60;18.17;;;21.00;77.30;;;;;;9168405;19;20018;-63
2022/09/12 09:53:04;;;;;;;35.33;18.65;;;21.10;77.00;;;;;;9165727;19;20546;-63
2022/09/12 09:56:13;;;;;;;33.22;18.52;;;21.30;76.70;;;;;;9166730;19;20791;-62
2022/09/12 09:59:18;;;;;;;36.63;18.75;;;21.40;76.40;;;;;;9167522;19;20082;-62
2022/09/12 10:02:25;;;;;;;35.67;18.75;;;21.50;76.20;;;;;;9166934;19;20471;-64
2022/09/12 10:05:32;;;;;;;34.00;18.00;;;21.70;75.90;;;;;;9169309;19;20015;-62
2022/09/12 10:08:38;;;;;;;32.78;17.35;;;21.80;75.70;;;;;;9167169;19;20014;-64
2022/09/12 10:11:42;;;;;;;35.42;16.50;;;22.00;75.50;;;;;;9169089;19;20036;-63
2022/09/12 10:14:59;;;;;;;35.28;17.73;;;22.10;75.40;;;;;;9177165;19;20503;-65
2022/09/12 10:18:03;;;;;;;;;;;22.20;75.00;;;;;;9184976;19;20017;-63
2022/09/12 10:21:28;;;;;;;32.38;16.77;;;22.40;75.10;;;;;;9183854;19;19923;-64
2022/09/12 10:24:36;;;;;;;28.08;14.20;;;22.50;74.80;;;;;;9178427;19;20010;-64
2022/09/12 10:27:39;;;;;;;24.30;13.30;;;22.60;74.80;;;;;;9177544;19;20089;-65
2022/09/12 10:30:52;;;;;;;25.38;13.98;;;22.80;74.60;;;;;;9175162;19;20018;-65
2022/09/12 10:33:58;;;;;;;25.77;13.63;;;22.90;74.20;;;;;;9178269;19;20023;-65
2022/09/12 10:37:06;;;;;;;23.38;13.18;;;23.10;74.20;;;;;;9179792;19;20014;-65
2022/09/12 10:40:24;;;;;;;19.60;10.95;;;23.30;73.90;;;;;;9185002;19;20019;-65
2022/09/12 10:43:30;;;;;;;22.80;11.88;;;23.50;73.30;;;;;;9181298;19;20078;-65
2022/09/12 10:46:34;;;;;;;21.02;11.93;;;23.60;73.10;;;;;;9183029;19;20475;-66
2022/09/12 10:49:39;;;;;;;19.63;11.15;;;23.80;72.80;;;;;;9183365;19;20023;-66
2022/09/12 10:52:44;;;;;;;16.50;9.82;;;24.00;72.50;;;;;;9169962;19;20018;-65
2022/09/12 10:56:05;;;;;;;19.10;9.40;;;24.20;72.10;;;;;;9175608;19;20378;-66
2022/09/12 10:59:23;;;;;;;17.20;10.15;;;24.40;71.40;;;;;;9175771;19;20021;-66
2022/09/12 11:02:29;;;;;;;15.20;8.57;;;24.60;71.40;;;;;;9177282;19;20086;-65
2022/09/12 11:05:54;;;;;;;17.42;9.07;;;24.70;71.10;;;;;;9176031;19;20017;-62
2022/09/12 11:09:07;;;;;;;16.13;8.70;;;24.90;70.40;;;;;;9169309;19;20019;-65
2022/09/12 11:12:20;;;;;;;14.57;7.95;;;25.00;70.30;;;;;;9166800;19;20033;-65
2022/09/12 11:15:37;;;;;;;11.80;7.30;;;25.20;70.10;;;;;;9169781;19;20578;-66
2022/09/12 11:19:03;;;;;;;16.33;8.13;;;25.30;69.60;;;;;;9171546;19;20014;-66
2022/09/12 11:22:20;;;;;;;12.30;6.95;;;25.50;69.60;;;;;;9170090;19;20022;-65
2022/09/12 11:25:35;;;;;;;12.27;8.35;;;25.60;69.00;;;;;;9165586;19;20111;-68
2022/09/12 11:28:48;;;;;;;14.13;7.10;;;25.80;68.60;;;;;;9172592;19;20067;-64
2022/09/12 11:32:24;;;;;;;12.02;7.97;;;25.90;68.50;;;;;;9173757;19;20048;-65
2022/09/12 11:35:30;;;;;;;13.32;7.93;;;26.00;68.00;;;;;;9170897;19;20055;-64
2022/09/12 11:38:53;;;;;;;14.05;6.45;;;26.20;68.20;;;;;;9176924;19;20459;-64
2022/09/12 11:42:04;;;;;;;9.85;6.50;;;26.30;67.50;;;;;;9174192;19;20035;-64
2022/09/12 11:45:16;;;;;;;9.75;5.88;;;26.40;67.40;;;;;;9176457;19;20017;-64
2022/09/12 11:48:32;;;;;;;8.52;5.97;;;26.50;66.90;;;;;;9174113;19;20047;-64
2022/09/12 11:51:42;;;;;;;12.93;6.63;;;26.60;66.60;;;;;;9175163;19;20018;-66
2022/09/12 11:54:50;;;;;;;14.25;5.38;;;26.60;66.50;;;;;;9175846;19;20124;-63
2022/09/12 11:57:59;;;;;;;9.57;5.45;;;26.70;66.30;;;;;;9176235;19;20083;-64
2022/09/12 12:01:13;;;;;;;9.98;5.63;;;26.80;66.00;;;;;;9175499;19;20014;-64
2022/09/12 12:04:22;;;;;;;8.43;4.28;;;26.90;65.40;;;;;;9173347;19;20440;-64
2022/09/12 12:07:26;;;;;;;7.38;4.70;;;26.90;65.40;;;;;;9174251;19;20449;-64
2022/09/12 12:10:36;;;;;;;9.85;5.05;;;27.00;65.20;;;;;;9172446;19;20042;-65
2022/09/12 12:13:49;;;;;;;8.10;4.35;;;27.00;64.70;;;;;;9166288;19;21001;-67
2022/09/12 12:16:53;;;;;;;10.20;4.75;;;27.00;64.50;;;;;;9169360;19;20018;-65
2022/09/12 12:20:03;;;;;;;6.90;4.25;;;27.10;64.70;;;;;;9173774;19;20014;-66
2022/09/12 12:23:23;;;;;;;;;;;27.10;64.20;;;;;;9173588;19;20756;-67
2022/09/12 12:26:43;;;;;;;9.23;4.10;;;27.20;64.80;;;;;;9169047;19;19934;-67
2022/09/12 12:29:48;;;;;;;5.38;3.58;;;27.20;64.00;;;;;;9170818;19;20657;-64
2022/09/12 12:32:52;;;;;;;10.60;3.55;;;27.30;64.20;;;;;;9171510;19;20059;-66
2022/09/12 12:36:06;;;;;;;6.18;3.13;;;27.30;63.90;;;;;;9168543;19;20353;-65
2022/09/12 12:39:48;;;;;;;3.70;2.38;;;27.30;63.20;;;;;;9172249;19;20035;-66
2022/09/12 12:43:06;;;;;;;9.68;3.63;;;27.30;62.80;;;;;;9171898;19;20363;-66
2022/09/12 12:46:14;;;;;;;5.82;3.30;;;27.40;62.80;;;;;;9175089;19;20303;-66
2022/09/12 12:49:25;;;;;;;5.65;3.60;;;27.40;62.80;;;;;;9177676;19;20022;-66
2022/09/12 12:52:31;;;;;;;5.22;3.45;;;27.40;62.50;;;;;;9170661;19;20022;-65
2022/09/12 12:55:38;;;;;;;7.25;3.63;;;27.40;62.30;;;;;;9180103;19;20137;-66
2022/09/12 12:58:42;;;;;;;6.10;3.58;;;27.50;62.10;;;;;;9181265;19;20519;-64
2022/09/12 13:01:50;;;;;;;;;;;27.50;62.00;;;;;;9181573;19;20085;-64
2022/09/12 13:05:00;;;;;;;3.85;2.92;;;27.50;62.40;;;;;;9180290;19;19922;-64
2022/09/12 13:08:10;;;;;;;3.28;2.05;;;27.50;62.30;;;;;;9176022;19;20082;-65
2022/09/12 13:11:17;;;;;;;5.80;3.00;;;27.50;61.90;;;;;;9179030;19;20010;-64
2022/09/12 13:14:38;;;;;;;7.75;3.40;;;27.40;61.50;;;;;;9175887;19;20026;-65
2022/09/12 13:17:46;;;;;;;5.22;3.38;;;27.40;60.90;;;;;;9177043;19;20027;-65
2022/09/12 13:20:54;;;;;;;4.97;3.17;;;27.40;61.20;;;;;;9179444;19;20018;-65
2022/09/12 13:24:03;;;;;;;5.88;3.13;;;27.30;60.90;;;;;;9179963;19;20015;-64
2022/09/12 13:27:18;;;;;;;7.80;3.90;;;27.30;60.80;;;;;;9176776;19;20033;-65
2022/09/12 13:30:22;;;;;;;6.07;4.22;;;27.30;60.40;;;;;;9179431;19;20150;-64
2022/09/12 13:33:35;;;;;;;6.22;3.45;;;27.30;60.70;;;;;;9175599;19;20029;-64
2022/09/12 13:36:48;;;;;;;5.50;3.90;;;27.30;60.50;;;;;;9174359;19;20081;-65
2022/09/12 13:40:00;;;;;;;4.47;3.38;;;27.20;60.60;;;;;;9179519;19;20546;-67
2022/09/12 13:43:16;;;;;;;5.55;3.22;;;27.20;60.40;;;;;;9175373;19;20019;-64
2022/09/12 13:46:28;;;;;;;5.07;3.13;;;27.20;60.10;;;;;;9178396;19;20018;-65
2022/09/12 13:49:37;;;;;;;3.58;2.78;;;27.20;60.30;;;;;;9181481;19;20018;-66
2022/09/12 13:52:41;;;;;;;3.85;2.53;;;27.20;60.20;;;;;;9185489;19;20027;-65
2022/09/12 13:55:50;;;;;;;5.97;2.67;;;27.10;60.10;;;;;;9186328;19;20010;-65
2022/09/12 13:58:56;;;;;;;9.50;3.45;;;27.10;59.80;;;;;;9187110;19;20019;-65
2022/09/12 14:02:00;;;;;;;5.38;3.15;;;27.10;59.90;;;;;;9185110;19;20022;-65
2022/09/12 14:05:12;;;;;;;;;;;27.10;59.80;;;;;;9187044;19;20011;-65
2022/09/12 14:08:16;;;;;;;9.43;3.10;;;27.10;60.20;;;;;;9169163;19;19919;-66
2022/09/12 14:11:26;;;;;;;8.32;2.88;;;27.10;60.10;;;;;;9174233;19;20022;-66
2022/09/12 14:14:35;;;;;;;5.70;2.40;;;27.10;59.70;;;;;;9172842;19;20026;-65
2022/09/12 14:17:40;;;;;;;7.55;3.05;;;27.00;59.60;;;;;;9171892;19;20026;-65
2022/09/12 14:20:46;;;;;;;5.20;2.88;;;27.00;59.50;;;;;;9170049;19;20029;-64
2022/09/12 14:23:50;;;;;;;4.28;2.38;;;26.90;59.30;;;;;;9172031;19;20098;-64
2022/09/12 14:26:56;;;;;;;8.23;2.40;;;26.90;59.30;;;;;;9176880;19;20025;-65
2022/09/12 14:30:05;;;;;;;3.38;2.20;;;26.90;59.20;;;;;;9177069;19;20090;-65
2022/09/12 14:33:20;;;;;;;3.78;2.40;;;26.90;59.00;;;;;;9168144;19;20022;-65
2022/09/12 14:36:30;;;;;;;4.30;2.40;;;26.80;58.70;;;;;;9166181;19;20094;-64
2022/09/12 14:39:38;;;;;;;8.00;2.85;;;26.80;58.80;;;;;;9171022;19;20019;-65
2022/09/12 14:42:43;;;;;;;5.43;2.97;;;26.80;58.80;;;;;;9169314;19;20043;-65
2022/09/12 14:45:55;;;;;;;3.75;2.40;;;26.70;58.70;;;;;;9170055;19;20053;-65
2022/09/12 14:49:02;;;;;;;7.45;2.58;;;26.70;58.50;;;;;;9174626;19;20484;-70
2022/09/12 14:52:22;;;;;;;6.47;2.47;;;26.60;58.40;;;;;;9175768;19;20483;-70
2022/09/12 14:55:30;;;;;;;7.05;2.47;;;26.50;58.30;;;;;;9178054;19;20768;-70
2022/09/12 14:58:34;;;;;;;3.63;2.72;;;26.50;58.20;;;;;;9173883;19;20014;-68
2022/09/12 15:01:38;;;;;;;5.68;2.13;;;26.40;58.20;;;;;;9175562;19;20388;-70
2022/09/12 15:04:42;;;;;;;;;;;26.40;58.30;;;;;;9175407;19;20502;-71
2022/09/12 15:07:52;;;;;;;;;;;26.30;58.50;;;;;;9172735;19;19929;-70
2022/09/12 15:10:56;;;;;;;5.55;2.38;;;26.30;58.90;;;;;;9174871;19;20272;-70
2022/09/12 15:14:07;;;;;;;5.22;2.63;;;26.20;58.80;;;;;;9178197;19;20014;-70
2022/09/12 15:17:10;;;;;;;3.22;2.25;;;26.20;58.60;;;;;;9182393;19;20078;-71
2022/09/12 15:20:15;;;;;;;6.05;2.50;;;26.10;58.50;;;;;;9182208;19;20011;-71
2022/09/12 15:23:28;;;;;;;8.10;3.10;;;26.00;58.40;;;;;;9183731;19;20086;-70
2022/09/12 15:26:32;;;;;;;5.55;3.13;;;26.00;58.30;;;;;;9184076;19;20333;-72
2022/09/12 15:29:35;;;;;;;3.38;2.47;;;26.00;58.40;;;;;;9181751;19;20429;-71
2022/09/12 15:32:39;;;;;;;3.42;2.42;;;25.90;58.30;;;;;;9182964;19;20021;-71
2022/09/12 15:35:43;;;;;;;10.10;3.10;;;25.80;58.20;;;;;;9170247;19;20535;-71
2022/09/12 15:38:50;;;;;;;4.10;2.80;;;25.90;58.20;;;;;;9168611;19;20018;-71
2022/09/12 15:41:54;;;;;;;5.30;2.42;;;25.80;58.00;;;;;;9168903;19;20015;-71
2022/09/12 15:44:58;;;;;;;6.93;2.95;;;25.80;58.10;;;;;;9172017;19;20082;-71
2022/09/12 15:48:07;;;;;;;8.35;3.13;;;25.70;58.00;;;;;;9174813;19;20014;-70
2022/09/12 15:51:13;;;;;;;8.18;3.05;;;25.70;58.00;;;;;;9175929;19;20547;-71
2022/09/12 15:54:21;;;;;;;5.05;3.20;;;25.70;57.90;;;;;;9173185;19;20025;-70
2022/09/12 15:57:25;;;;;;;7.95;2.72;;;25.60;57.90;;;;;;9175998;19;20059;-69
2022/09/12 16:00:30;;;;;;;3.60;2.60;;;25.60;58.00;;;;;;9173020;19;20030;-71
2022/09/12 16:03:33;;;;;;;5.90;2.97;;;25.60;58.00;;;;;;9175683;19;20014;-70
2022/09/12 16:06:37;;;;;;;;;;;25.50;58.00;;;;;;9176545;19;21512;-70